sensor_id;sensor_type;location;lat;lon;timestamp;pressure;altitude;pressure_sealevel;temperature;humidity
22862;BME280;11598;50.652;6.172;2023-05-19T00:00:18;97296.44;;;5.21;89.31
22862;BME280;11598;50.652;6.172;2023-05-19T00:10:18;97296.38;;;5.00;90.04
22862;BME280;11598;50.652;6.172;2023-05-19T00:20:20;97292.72;;;4.84;90.81
22862;BME280;11598;50.652;6.172;2023-05-19T00:30:20;97286.53;;;4.66;91.53
22862;BME280;11598;50.652;6.172;2023-05-19T00:40:23;97285.47;;;4.48;92.43
22862;BME280;11598;50.652;6.172;2023-05-19T00:50:23;97282.34;;;4.40;92.98
22862;BME280;11598;50.652;6.172;2023-05-19T01:00:24;97271.03;;;4.44;94.08
22862;BME280;11598;50.652;6.172;2023-05-19T01:10:24;97265.84;;;4.45;94.41
22862;BME280;11598;50.652;6.172;2023-05-19T01:20:35;97258.28;;;4.41;95.13
22862;BME280;11598;50.652;6.172;2023-05-19T01:30:50;97252.19;;;4.43;95.12
22862;BME280;11598;50.652;6.172;2023-05-19T01:40:53;97243.94;;;4.35;95.05
22862;BME280;11598;50.652;6.172;2023-05-19T01:50:54;97249.28;;;4.29;95.06
22862;BME280;11598;50.652;6.172;2023-05-19T02:21:53;97234.50;;;4.58;96.03
22862;BME280;11598;50.652;6.172;2023-05-19T02:31:53;97234.38;;;4.61;96.04
22862;BME280;11598;50.652;6.172;2023-05-19T02:41:54;97222.41;;;4.60;96.18
22862;BME280;11598;50.652;6.172;2023-05-19T02:51:54;97208.72;;;4.59;96.15
22862;BME280;11598;50.652;6.172;2023-05-19T03:01:58;97215.16;;;4.70;96.01
22862;BME280;11598;50.652;6.172;2023-05-19T03:11:59;97227.03;;;4.74;95.32
22862;BME280;11598;50.652;6.172;2023-05-19T03:22:03;97224.63;;;4.47;95.04
22862;BME280;11598;50.652;6.172;2023-05-19T03:32:04;97228.22;;;4.43;95.69
22862;BME280;11598;50.652;6.172;2023-05-19T03:42:04;97215.47;;;4.84;94.70
22862;BME280;11598;50.652;6.172;2023-05-19T03:52:05;97214.19;;;5.16;92.77
22862;BME280;11598;50.652;6.172;2023-05-19T04:02:05;97224.31;;;5.21;91.69
22862;BME280;11598;50.652;6.172;2023-05-19T04:12:06;97219.75;;;5.27;91.86
22862;BME280;11598;50.652;6.172;2023-05-19T04:22:07;97218.78;;;5.71;91.07
22862;BME280;11598;50.652;6.172;2023-05-19T04:32:07;97233.13;;;6.18;90.19
22862;BME280;11598;50.652;6.172;2023-05-19T04:42:08;97225.59;;;6.70;87.60
22862;BME280;11598;50.652;6.172;2023-05-19T04:52:10;97223.25;;;7.19;85.67
22862;BME280;11598;50.652;6.172;2023-05-19T05:02:10;97223.59;;;7.65;83.65
22862;BME280;11598;50.652;6.172;2023-05-19T05:12:12;97224.03;;;8.07;82.67
22862;BME280;11598;50.652;6.172;2023-05-19T05:22:12;97223.16;;;8.73;81.16
22862;BME280;11598;50.652;6.172;2023-05-19T05:32:13;97218.00;;;9.49;78.99
22862;BME280;11598;50.652;6.172;2023-05-19T05:42:15;97206.53;;;10.41;75.96
22862;BME280;11598;50.652;6.172;2023-05-19T05:52:17;97218.09;;;11.18;71.81
22862;BME280;11598;50.652;6.172;2023-05-19T06:02:20;97206.31;;;11.52;69.55
22862;BME280;11598;50.652;6.172;2023-05-19T06:12:20;97204.00;;;12.00;66.47
22862;BME280;11598;50.652;6.172;2023-05-19T06:22:22;97196.91;;;12.15;64.40
22862;BME280;11598;50.652;6.172;2023-05-19T06:32:22;97209.78;;;12.42;62.51
22862;BME280;11598;50.652;6.172;2023-05-19T06:42:22;97209.00;;;12.66;61.92
22862;BME280;11598;50.652;6.172;2023-05-19T06:52:24;97212.84;;;13.21;59.79
22862;BME280;11598;50.652;6.172;2023-05-19T07:02:24;97207.03;;;13.42;56.97
22862;BME280;11598;50.652;6.172;2023-05-19T07:12:25;97220.13;;;13.53;56.41
22862;BME280;11598;50.652;6.172;2023-05-19T07:22:25;97219.31;;;13.64;55.20
22862;BME280;11598;50.652;6.172;2023-05-19T07:32:26;97220.25;;;13.98;54.54
22862;BME280;11598;50.652;6.172;2023-05-19T07:42:26;97201.84;;;14.33;54.09
22862;BME280;11598;50.652;6.172;2023-05-19T07:52:26;97210.81;;;15.08;51.10
22862;BME280;11598;50.652;6.172;2023-05-19T08:02:27;97207.25;;;14.98;48.80
22862;BME280;11598;50.652;6.172;2023-05-19T08:12:27;97209.97;;;15.61;49.11
22862;BME280;11598;50.652;6.172;2023-05-19T08:22:28;97191.53;;;16.35;48.69
22862;BME280;11598;50.652;6.172;2023-05-19T08:32:28;97187.69;;;15.46;49.22
22862;BME280;11598;50.652;6.172;2023-05-19T08:42:28;97188.22;;;14.30;49.89
22862;BME280;11598;50.652;6.172;2023-05-19T09:02:41;97175.75;;;13.53;51.51
22862;BME280;11598;50.652;6.172;2023-05-19T09:12:43;97167.22;;;13.51;51.44
22862;BME280;11598;50.652;6.172;2023-05-19T09:22:45;97159.84;;;13.56;52.69
22862;BME280;11598;50.652;6.172;2023-05-19T09:32:50;97164.50;;;13.52;51.62
22862;BME280;11598;50.652;6.172;2023-05-19T09:42:52;97155.75;;;13.29;52.43
22862;BME280;11598;50.652;6.172;2023-05-19T09:52:53;97152.50;;;13.50;52.33
22862;BME280;11598;50.652;6.172;2023-05-19T10:02:53;97151.66;;;13.49;52.92
22862;BME280;11598;50.652;6.172;2023-05-19T10:12:57;97144.44;;;13.53;53.79
22862;BME280;11598;50.652;6.172;2023-05-19T10:22:58;97144.31;;;13.66;53.63
22862;BME280;11598;50.652;6.172;2023-05-19T10:33:00;97144.91;;;13.58;53.14
22862;BME280;11598;50.652;6.172;2023-05-19T10:43:13;97144.97;;;13.81;54.79
22862;BME280;11598;50.652;6.172;2023-05-19T10:53:16;97134.97;;;13.86;54.01
22862;BME280;11598;50.652;6.172;2023-05-19T11:03:17;97139.38;;;13.85;54.97
22862;BME280;11598;50.652;6.172;2023-05-19T11:13:20;97129.06;;;13.95;53.06
22862;BME280;11598;50.652;6.172;2023-05-19T11:23:24;97125.22;;;13.99;53.64
22862;BME280;11598;50.652;6.172;2023-05-19T11:33:25;97131.66;;;13.95;54.42
22862;BME280;11598;50.652;6.172;2023-05-19T11:43:26;97131.88;;;14.03;53.48
22862;BME280;11598;50.652;6.172;2023-05-19T11:53:26;97125.13;;;14.23;54.52
22862;BME280;11598;50.652;6.172;2023-05-19T12:03:30;97105.69;;;14.59;52.93
22862;BME280;11598;50.652;6.172;2023-05-19T12:13:32;97106.19;;;14.53;52.63
22862;BME280;11598;50.652;6.172;2023-05-19T12:23:33;97103.78;;;14.62;52.89
22862;BME280;11598;50.652;6.172;2023-05-19T12:33:34;97102.00;;;14.62;51.54
22862;BME280;11598;50.652;6.172;2023-05-19T12:43:34;97095.13;;;14.50;50.82
22862;BME280;11598;50.652;6.172;2023-05-19T12:53:36;97100.00;;;14.66;49.88
22862;BME280;11598;50.652;6.172;2023-05-19T13:03:40;97087.81;;;14.76;49.70
22862;BME280;11598;50.652;6.172;2023-05-19T13:13:42;97076.28;;;14.78;49.23
22862;BME280;11598;50.652;6.172;2023-05-19T13:23:43;97057.66;;;14.93;47.48
22862;BME280;11598;50.652;6.172;2023-05-19T13:33:43;97052.00;;;15.09;48.08
22862;BME280;11598;50.652;6.172;2023-05-19T13:43:43;97069.66;;;15.37;48.19
22862;BME280;11598;50.652;6.172;2023-05-19T13:53:44;97061.19;;;15.24;48.69
22862;BME280;11598;50.652;6.172;2023-05-19T14:03:44;97063.88;;;15.34;47.85
22862;BME280;11598;50.652;6.172;2023-05-19T14:13:46;97059.59;;;15.63;47.43
22862;BME280;11598;50.652;6.172;2023-05-19T14:23:47;97043.81;;;15.23;46.71
22862;BME280;11598;50.652;6.172;2023-05-19T14:33:47;97038.28;;;15.47;47.45
22862;BME280;11598;50.652;6.172;2023-05-19T14:43:48;97051.44;;;15.57;46.62
22862;BME280;11598;50.652;6.172;2023-05-19T14:53:48;97035.81;;;15.46;46.08
22862;BME280;11598;50.652;6.172;2023-05-19T15:03:49;97043.13;;;15.52;47.54
22862;BME280;11598;50.652;6.172;2023-05-19T15:13:49;97027.00;;;15.77;46.93
22862;BME280;11598;50.652;6.172;2023-05-19T15:23:50;97035.47;;;15.60;46.96
22862;BME280;11598;50.652;6.172;2023-05-19T15:33:50;97019.53;;;15.42;47.45
22862;BME280;11598;50.652;6.172;2023-05-19T15:43:50;97024.56;;;15.55;47.93
22862;BME280;11598;50.652;6.172;2023-05-19T15:53:51;97004.59;;;15.33;48.71
22862;BME280;11598;50.652;6.172;2023-05-19T16:03:51;96996.13;;;15.71;48.16
22862;BME280;11598;50.652;6.172;2023-05-19T16:13:52;97000.59;;;15.59;47.45
22862;BME280;11598;50.652;6.172;2023-05-19T16:23:52;96997.13;;;15.28;48.54
22862;BME280;11598;50.652;6.172;2023-05-19T16:33:53;96986.94;;;15.25;49.23
22862;BME280;11598;50.652;6.172;2023-05-19T16:43:53;96973.84;;;15.25;50.12
22862;BME280;11598;50.652;6.172;2023-05-19T16:53:53;96972.00;;;15.16;49.56
22862;BME280;11598;50.652;6.172;2023-05-19T17:03:54;96962.34;;;15.16;49.63
22862;BME280;11598;50.652;6.172;2023-05-19T17:13:54;96976.66;;;15.33;50.19
22862;BME280;11598;50.652;6.172;2023-05-19T17:23:55;96966.22;;;15.12;50.45
22862;BME280;11598;50.652;6.172;2023-05-19T17:33:55;96965.19;;;15.04;50.48
22862;BME280;11598;50.652;6.172;2023-05-19T17:43:56;96966.94;;;14.93;50.50
22862;BME280;11598;50.652;6.172;2023-05-19T17:53:57;96985.16;;;14.84;50.94
22862;BME280;11598;50.652;6.172;2023-05-19T18:03:58;96988.41;;;14.76;51.52
22862;BME280;11598;50.652;6.172;2023-05-19T18:13:58;96976.09;;;14.67;51.16
22862;BME280;11598;50.652;6.172;2023-05-19T18:23:58;96980.09;;;14.50;50.51
22862;BME280;11598;50.652;6.172;2023-05-19T18:34:03;96980.25;;;14.37;49.92
22862;BME280;11598;50.652;6.172;2023-05-19T18:44:03;96983.91;;;14.13;49.95
22862;BME280;11598;50.652;6.172;2023-05-19T18:54:06;96996.91;;;13.92;50.73
22862;BME280;11598;50.652;6.172;2023-05-19T19:04:07;96992.41;;;13.72;51.46
22862;BME280;11598;50.652;6.172;2023-05-19T19:14:07;96998.59;;;13.48;51.81
22862;BME280;11598;50.652;6.172;2023-05-19T19:24:09;97008.16;;;13.25;52.56
22862;BME280;11598;50.652;6.172;2023-05-19T19:34:09;97013.84;;;13.08;53.02
22862;BME280;11598;50.652;6.172;2023-05-19T19:44:10;97022.44;;;12.86;53.64
22862;BME280;11598;50.652;6.172;2023-05-19T19:54:10;97029.97;;;12.66;54.32
22862;BME280;11598;50.652;6.172;2023-05-19T20:04:10;97033.56;;;12.53;54.76
22862;BME280;11598;50.652;6.172;2023-05-19T20:14:11;97028.75;;;12.35;55.33
22862;BME280;11598;50.652;6.172;2023-05-19T20:24:11;97038.16;;;12.25;55.71
22862;BME280;11598;50.652;6.172;2023-05-19T20:34:12;97040.59;;;12.15;56.00
22862;BME280;11598;50.652;6.172;2023-05-19T20:44:12;97039.84;;;12.02;56.46
22862;BME280;11598;50.652;6.172;2023-05-19T20:54:13;97039.13;;;11.87;56.96
22862;BME280;11598;50.652;6.172;2023-05-19T21:04:13;97052.06;;;11.76;57.44
22862;BME280;11598;50.652;6.172;2023-05-19T21:14:14;97049.97;;;11.68;57.85
22862;BME280;11598;50.652;6.172;2023-05-19T21:24:14;97047.56;;;11.52;58.75
22862;BME280;11598;50.652;6.172;2023-05-19T21:34:15;97039.38;;;11.33;59.59
22862;BME280;11598;50.652;6.172;2023-05-19T21:44:16;97039.56;;;11.17;60.45
22862;BME280;11598;50.652;6.172;2023-05-19T21:54:16;97048.50;;;11.00;61.74
22862;BME280;11598;50.652;6.172;2023-05-19T22:04:17;97049.94;;;10.78;62.72
22862;BME280;11598;50.652;6.172;2023-05-19T22:14:17;97036.41;;;10.61;63.75
22862;BME280;11598;50.652;6.172;2023-05-19T22:24:17;97047.78;;;10.45;64.99
22862;BME280;11598;50.652;6.172;2023-05-19T22:34:18;97036.63;;;10.43;65.81
22862;BME280;11598;50.652;6.172;2023-05-19T22:44:18;97034.63;;;10.34;66.58
22862;BME280;11598;50.652;6.172;2023-05-19T22:54:18;97044.94;;;10.21;67.29
22862;BME280;11598;50.652;6.172;2023-05-19T23:04:19;97042.94;;;10.12;68.08
22862;BME280;11598;50.652;6.172;2023-05-19T23:14:19;97033.88;;;10.05;68.42
22862;BME280;11598;50.652;6.172;2023-05-19T23:24:20;97021.81;;;10.04;68.60
22862;BME280;11598;50.652;6.172;2023-05-19T23:34:21;97023.84;;;9.99;69.24
22862;BME280;11598;50.652;6.172;2023-05-19T23:44:21;97019.06;;;9.92;69.55
22862;BME280;11598;50.652;6.172;2023-05-19T23:54:21;97017.59;;;9.88;69.77
